createdAt,value
2022-11-16T00:02:14.250Z,11.67
2022-11-16T00:04:42.271Z,11.35
2022-11-16T00:07:10.837Z,11.75
2022-11-16T00:09:38.996Z,12.00
2022-11-16T00:12:08.953Z,12.11
2022-11-16T00:14:36.904Z,12.78
2022-11-16T00:17:05.232Z,12.65
2022-11-16T00:19:33.093Z,12.36
2022-11-16T00:22:01.046Z,12.61
2022-11-16T00:24:28.960Z,12.51
2022-11-16T00:26:56.906Z,12.11
2022-11-16T00:29:26.630Z,12.07
2022-11-16T00:31:54.580Z,12.47
2022-11-16T00:34:23.613Z,12.25
2022-11-16T00:36:52.033Z,12.19
2022-11-16T00:39:20.986Z,12.53
2022-11-16T00:41:49.832Z,12.20
2022-11-16T00:44:18.921Z,11.85
2022-11-16T00:46:46.882Z,12.22
2022-11-16T00:49:15.057Z,11.54
2022-11-16T00:51:43.250Z,11.23
2022-11-16T00:54:11.516Z,11.96
2022-11-16T00:56:39.857Z,11.99
2022-11-16T00:59:08.343Z,11.70
2022-11-16T01:01:36.497Z,11.93
2022-11-16T01:04:04.688Z,11.37
2022-11-16T01:06:32.610Z,11.46
2022-11-16T01:09:02.052Z,11.33
2022-11-16T01:11:48.655Z,11.34
2022-11-16T01:14:17.021Z,11.45
2022-11-16T01:16:44.910Z,11.63
2022-11-16T01:19:12.833Z,11.45
2022-11-16T01:21:40.724Z,10.95
2022-11-16T01:24:08.635Z,11.28
2022-11-16T01:26:36.601Z,11.33
2022-11-16T01:29:05.140Z,10.58
2022-11-16T01:31:37.202Z,10.34
2022-11-16T01:34:05.799Z,11.09
2022-11-16T01:36:35.462Z,11.06
2022-11-16T01:39:05.455Z,10.65
2022-11-16T01:41:44.437Z,10.82
2022-11-16T01:44:15.475Z,10.60
2022-11-16T01:46:54.374Z,10.52
2022-11-16T01:49:25.824Z,10.43
2022-11-16T01:52:07.716Z,10.14
2022-11-16T01:54:40.334Z,10.53
2022-11-16T01:57:12.811Z,10.72
2022-11-16T01:59:50.379Z,10.85
2022-11-16T02:02:21.689Z,10.56
2022-11-16T02:04:52.685Z,10.79
2022-11-16T02:08:00.627Z,10.70
2022-11-16T02:10:32.542Z,10.77
2022-11-16T02:13:30.363Z,10.92
2022-11-16T02:16:35.954Z,10.57
2022-11-16T02:19:24.212Z,10.81
2022-11-16T02:22:05.210Z,10.54
2022-11-16T02:24:35.744Z,10.17
2022-11-16T02:27:21.670Z,10.54
2022-11-16T02:29:54.586Z,9.63
2022-11-16T02:32:33.609Z,10.28
2022-11-16T02:35:18.640Z,10.40
2022-11-16T02:37:55.486Z,10.42
2022-11-16T02:40:26.788Z,9.77
2022-11-16T02:43:28.692Z,10.19
2022-11-16T02:46:02.676Z,9.90
2022-11-16T02:48:38.765Z,9.88
2022-11-16T02:51:08.724Z,9.44
2022-11-16T02:54:04.490Z,9.13
2022-11-16T02:56:45.380Z,9.22
2022-11-16T02:59:17.554Z,8.84
2022-11-16T03:02:13.598Z,8.91
2022-11-16T03:05:11.491Z,9.12
2022-11-16T03:07:52.854Z,8.38
2022-11-16T03:10:41.066Z,8.69
2022-11-16T03:13:13.548Z,8.78
2022-11-16T03:15:42.794Z,8.69
2022-11-16T03:18:15.928Z,8.19
2022-11-16T03:20:44.579Z,8.37
2022-11-16T03:23:14.079Z,8.35
2022-11-16T03:25:52.729Z,8.40
2022-11-16T03:28:25.837Z,8.51
2022-11-16T03:31:02.448Z,8.44
2022-11-16T03:33:37.322Z,8.49
2022-11-16T03:36:14.153Z,9.48
2022-11-16T03:38:45.374Z,9.36
2022-11-16T03:41:15.160Z,8.99
2022-11-16T03:43:45.310Z,8.78
2022-11-16T03:46:16.749Z,9.03
2022-11-16T03:48:47.079Z,8.78
2022-11-16T03:51:22.752Z,8.81
2022-11-16T03:53:50.707Z,9.09
2022-11-16T03:56:19.473Z,9.06
2022-11-16T03:58:48.040Z,8.80
2022-11-16T04:01:16.121Z,9.06
2022-11-16T04:03:45.141Z,9.41
2022-11-16T04:06:31.925Z,8.99
2022-11-16T04:09:18.744Z,9.43
2022-11-16T04:12:05.413Z,9.39
2022-11-16T04:14:51.947Z,9.68
2022-11-16T04:17:38.840Z,10.24
2022-11-16T04:20:27.996Z,9.64
2022-11-16T04:23:20.884Z,9.71
2022-11-16T04:25:50.680Z,9.99
2022-11-16T04:28:24.500Z,10.28
2022-11-16T04:31:18.270Z,9.92
2022-11-16T04:34:11.154Z,9.91
2022-11-16T04:37:03.107Z,11.10
2022-11-16T04:39:32.170Z,11.11
2022-11-16T04:42:15.269Z,10.19
2022-11-16T04:45:03.858Z,10.92
2022-11-16T04:47:38.397Z,11.49
2022-11-16T04:50:06.542Z,11.37
2022-11-16T04:52:34.736Z,11.32
2022-11-16T04:55:02.631Z,12.18
2022-11-16T04:57:30.673Z,13.05
2022-11-16T04:59:59.186Z,12.84
2022-11-16T05:02:27.583Z,12.20
2022-11-16T05:04:58.648Z,11.38
2022-11-16T05:07:27.861Z,10.30
2022-11-16T05:10:04.972Z,10.06
2022-11-16T05:12:34.113Z,9.36
2022-11-16T05:15:06.725Z,8.82
2022-11-16T05:17:35.004Z,8.26
2022-11-16T05:20:24.103Z,8.33
2022-11-16T05:22:58.015Z,8.13
2022-11-16T05:25:35.237Z,9.82
2022-11-16T05:28:06.065Z,9.47
2022-11-16T05:30:38.490Z,9.35
2022-11-16T05:33:06.349Z,8.44
2022-11-16T05:35:38.874Z,8.08
2022-11-16T05:38:07.495Z,7.99
2022-11-16T05:40:40.366Z,7.85
2022-11-16T05:43:08.303Z,7.65
2022-11-16T05:45:43.117Z,8.08
2022-11-16T05:48:13.023Z,8.14
2022-11-16T05:50:43.061Z,7.90
2022-11-16T05:53:22.084Z,8.40
2022-11-16T05:55:51.260Z,8.26
2022-11-16T05:58:20.500Z,8.90
2022-11-16T06:00:51.229Z,8.99
2022-11-16T06:03:20.732Z,8.58
2022-11-16T06:05:48.684Z,8.77
2022-11-16T06:08:18.598Z,8.60
2022-11-16T06:10:47.255Z,8.70
2022-11-16T06:13:15.400Z,8.90
2022-11-16T06:15:52.428Z,8.83
2022-11-16T06:18:20.688Z,9.01
2022-11-16T06:20:50.536Z,8.89
2022-11-16T06:23:21.393Z,8.40
2022-11-16T06:25:55.030Z,8.81
2022-11-16T06:28:25.579Z,8.62
2022-11-16T06:30:53.507Z,8.59
2022-11-16T06:33:22.423Z,8.36
2022-11-16T06:35:51.223Z,9.04
2022-11-16T06:38:23.547Z,9.09
2022-11-16T06:40:58.427Z,9.14
2022-11-16T06:43:28.819Z,9.82
2022-11-16T06:46:00.542Z,9.45
2022-11-16T06:48:31.032Z,9.79
2022-11-16T06:50:59.515Z,9.03
2022-11-16T06:53:29.398Z,9.23
2022-11-16T06:56:05.602Z,9.20
2022-11-16T06:58:39.316Z,8.88
2022-11-16T07:01:11.610Z,9.19
2022-11-16T07:03:41.732Z,9.90
2022-11-16T07:06:14.506Z,9.78
2022-11-16T07:08:45.310Z,9.50
2022-11-16T07:11:16.183Z,9.35
2022-11-16T07:13:44.468Z,9.01
2022-11-16T07:16:12.746Z,9.22
2022-11-16T07:18:46.210Z,9.48
2022-11-16T07:21:16.334Z,9.71
2022-11-16T07:23:45.531Z,9.97
2022-11-16T07:26:18.243Z,9.96
2022-11-16T07:28:54.407Z,9.94
2022-11-16T07:31:23.844Z,9.87
2022-11-16T07:34:11.685Z,9.84
2022-11-16T07:36:48.318Z,10.38
2022-11-16T07:39:17.566Z,11.66
2022-11-16T07:41:47.007Z,12.37
2022-11-16T07:44:29.308Z,11.06
2022-11-16T07:47:09.250Z,11.29
2022-11-16T07:49:38.321Z,11.61
2022-11-16T07:52:13.789Z,12.48
2022-11-16T07:54:53.670Z,13.47
2022-11-16T07:57:24.936Z,14.90
2022-11-16T07:59:54.785Z,15.22
2022-11-16T08:02:23.439Z,15.18
2022-11-16T08:04:52.276Z,15.21
2022-11-16T08:07:25.377Z,15.43
2022-11-16T08:09:56.823Z,15.52
2022-11-16T08:12:25.052Z,16.12
2022-11-16T08:14:54.557Z,17.47
2022-11-16T08:17:22.467Z,17.23
2022-11-16T08:19:50.596Z,17.58
2022-11-16T08:22:19.485Z,17.66
2022-11-16T08:24:47.732Z,17.63
2022-11-16T08:27:17.430Z,18.76
2022-11-16T08:29:49.220Z,18.18
2022-11-16T08:32:17.143Z,18.85
2022-11-16T08:34:45.481Z,18.67
2022-11-16T08:37:13.695Z,19.19
2022-11-16T08:39:45.331Z,19.51
2022-11-16T08:42:13.709Z,21.66
2022-11-16T08:44:45.905Z,19.68
2022-11-16T08:47:16.225Z,20.15
2022-11-16T08:49:53.928Z,20.44
2022-11-16T08:52:24.588Z,21.04
2022-11-16T08:54:54.311Z,20.65
2022-11-16T08:57:23.831Z,20.57
2022-11-16T08:59:57.222Z,21.05
2022-11-16T09:02:28.110Z,20.39
2022-11-16T09:04:56.592Z,21.02
2022-11-16T09:07:25.366Z,22.59
2022-11-16T09:09:53.332Z,23.53
2022-11-16T09:12:21.410Z,22.16
2022-11-16T09:14:49.922Z,22.20
2022-11-16T09:17:22.944Z,21.96
2022-11-16T09:19:51.231Z,21.92
2022-11-16T09:22:19.428Z,20.67
2022-11-16T09:24:47.622Z,20.81
2022-11-16T09:27:16.493Z,20.15
2022-11-16T09:29:44.469Z,20.98
2022-11-16T09:32:12.557Z,21.10
2022-11-16T09:34:40.463Z,20.31
2022-11-16T09:37:08.462Z,21.00
2022-11-16T09:39:36.513Z,19.64
2022-11-16T09:42:16.139Z,20.34
2022-11-16T09:45:09.037Z,19.99
2022-11-16T09:47:43.491Z,19.86
2022-11-16T09:50:42.661Z,19.56
2022-11-16T09:53:33.748Z,19.28
2022-11-16T09:56:21.875Z,19.73
2022-11-16T09:58:57.239Z,19.95
2022-11-16T10:02:03.403Z,19.76
2022-11-16T10:04:44.516Z,20.33
2022-11-16T10:07:23.427Z,20.24
2022-11-16T10:09:52.136Z,21.27
2022-11-16T10:12:43.870Z,21.52
2022-11-16T10:15:30.051Z,21.61
2022-11-16T10:18:23.171Z,21.46
2022-11-16T10:21:12.986Z,22.24
2022-11-16T10:24:03.758Z,20.90
2022-11-16T10:27:03.831Z,21.28
2022-11-16T10:29:41.268Z,19.27
2022-11-16T10:32:31.134Z,19.45
2022-11-16T10:35:18.350Z,19.81
2022-11-16T10:37:51.123Z,18.27
2022-11-16T10:40:21.765Z,18.37
2022-11-16T10:43:04.329Z,17.97
2022-11-16T10:45:39.095Z,18.33
2022-11-16T10:48:18.570Z,18.57
2022-11-16T10:50:49.260Z,19.13
2022-11-16T10:53:29.872Z,19.71
2022-11-16T10:56:11.031Z,18.60
2022-11-16T10:58:52.402Z,18.21
2022-11-16T11:01:38.631Z,17.44
2022-11-16T11:04:24.712Z,18.85
2022-11-16T11:07:18.782Z,19.50
2022-11-16T11:09:52.926Z,18.64
2022-11-16T11:12:37.930Z,17.11
2022-11-16T11:15:11.728Z,17.28
2022-11-16T11:17:45.211Z,17.00
2022-11-16T11:20:16.421Z,17.25
2022-11-16T11:23:23.980Z,16.54
2022-11-16T11:25:55.372Z,16.00
2022-11-16T11:28:37.011Z,14.89
2022-11-16T11:31:16.586Z,14.79
2022-11-16T11:33:53.651Z,15.51
2022-11-16T11:36:27.988Z,16.11
2022-11-16T11:39:00.486Z,15.15
2022-11-16T11:41:43.204Z,14.54
2022-11-16T11:44:14.274Z,14.84
2022-11-16T11:47:50.392Z,14.61
2022-11-16T11:49:50.013Z,15.07
2022-11-16T11:52:54.655Z,15.14
2022-11-16T11:55:22.773Z,15.31
2022-11-16T11:57:53.755Z,14.77
2022-11-16T12:00:22.879Z,14.74
2022-11-16T12:03:05.145Z,13.93
2022-11-16T12:06:09.662Z,13.95
2022-11-16T12:08:51.200Z,13.80
2022-11-16T12:11:49.438Z,13.32
2022-11-16T12:14:23.321Z,12.80
2022-11-16T12:17:09.852Z,13.31
2022-11-16T12:19:58.129Z,12.41
2022-11-16T12:22:29.253Z,13.00
2022-11-16T12:25:15.160Z,12.49
2022-11-16T12:28:04.376Z,11.86
2022-11-16T12:30:39.820Z,12.34
2022-11-16T12:33:43.469Z,12.28
2022-11-16T12:36:32.607Z,11.76
2022-11-16T12:39:34.615Z,11.88
2022-11-16T12:42:24.524Z,11.81
2022-11-16T12:45:16.318Z,12.25
2022-11-16T12:47:51.290Z,12.49
2022-11-16T12:50:46.665Z,12.45
2022-11-16T12:53:52.516Z,11.68
2022-11-16T12:56:38.086Z,12.17
2022-11-16T12:59:18.742Z,11.50
2022-11-16T13:02:09.861Z,11.43
2022-11-16T13:04:58.706Z,11.96
2022-11-16T13:07:53.580Z,11.84
2022-11-16T13:10:34.492Z,11.68
2022-11-16T13:13:35.521Z,11.43
2022-11-16T13:16:06.268Z,11.64
2022-11-16T13:18:39.047Z,11.52
2022-11-16T13:21:36.079Z,11.54
2022-11-16T13:24:22.824Z,10.56
2022-11-16T13:27:02.647Z,10.59
2022-11-16T13:29:44.514Z,10.28
2022-11-16T13:32:49.632Z,9.28
2022-11-16T13:35:18.737Z,8.77
2022-11-16T13:37:48.966Z,8.76
2022-11-16T13:40:29.618Z,9.17
2022-11-16T13:43:12.015Z,9.35
2022-11-16T13:45:55.241Z,9.76
2022-11-16T13:48:25.985Z,9.80
2022-11-16T13:50:57.476Z,10.11
2022-11-16T13:54:43.080Z,10.06
2022-11-16T13:56:28.932Z,9.82
2022-11-16T13:58:58.721Z,10.42
2022-11-16T14:02:25.518Z,10.71
2022-11-16T14:05:02.244Z,11.06
2022-11-16T14:07:33.893Z,11.62
2022-11-16T14:10:05.679Z,11.48
2022-11-16T14:12:39.636Z,11.31
2022-11-16T14:15:22.594Z,11.64
2022-11-16T14:17:54.130Z,11.25
2022-11-16T14:21:03.473Z,11.04
2022-11-16T14:23:48.366Z,11.00
2022-11-16T14:26:23.787Z,10.66
2022-11-16T14:29:06.935Z,11.16
2022-11-16T14:31:54.078Z,10.69
2022-11-16T14:34:25.480Z,11.01
2022-11-16T14:36:53.990Z,11.04
2022-11-16T14:39:27.758Z,11.12
2022-11-16T14:42:00.862Z,11.13
2022-11-16T14:44:33.256Z,10.95
2022-11-16T14:47:03.720Z,10.62
2022-11-16T14:49:34.866Z,10.80
2022-11-16T14:52:05.477Z,10.87
2022-11-16T14:54:50.152Z,10.84
2022-11-16T14:57:20.637Z,10.89
2022-11-16T14:59:49.575Z,10.37
2022-11-16T15:02:17.394Z,10.80
2022-11-16T15:04:45.400Z,10.58
2022-11-16T15:07:15.434Z,11.38
2022-11-16T15:09:53.694Z,11.67
2022-11-16T15:12:51.585Z,11.69
2022-11-16T15:15:28.125Z,11.31
2022-11-16T15:17:58.734Z,11.64
2022-11-16T15:20:29.322Z,11.44
2022-11-16T15:22:59.322Z,11.53
2022-11-16T15:25:31.768Z,11.92
2022-11-16T15:28:06.142Z,12.19
2022-11-16T15:30:37.492Z,11.95
2022-11-16T15:33:11.458Z,12.64
2022-11-16T15:35:39.303Z,12.90
2022-11-16T15:38:07.197Z,13.12
2022-11-16T15:40:35.456Z,13.93
2022-11-16T15:43:06.710Z,15.07
2022-11-16T15:45:37.573Z,13.68
2022-11-16T15:48:06.049Z,14.34
2022-11-16T15:50:34.516Z,14.33
2022-11-16T15:53:02.625Z,14.09
2022-11-16T15:55:36.007Z,14.64
2022-11-16T15:58:11.417Z,14.84
2022-11-16T16:00:39.684Z,19.40
2022-11-16T16:03:23.347Z,14.52
2022-11-16T16:05:52.287Z,15.17
2022-11-16T16:08:24.540Z,15.69
2022-11-16T16:11:00.605Z,14.84
2022-11-16T16:13:34.626Z,15.84
2022-11-16T16:16:22.967Z,16.24
2022-11-16T16:18:52.233Z,17.24
2022-11-16T16:21:20.264Z,17.67
2022-11-16T16:23:54.400Z,18.13
2022-11-16T16:26:23.629Z,18.38
2022-11-16T16:28:51.977Z,17.61
2022-11-16T16:31:20.001Z,17.97
2022-11-16T16:33:48.877Z,18.88
2022-11-16T16:36:17.057Z,18.66
2022-11-16T16:38:45.192Z,16.92
2022-11-16T16:41:23.744Z,16.77
2022-11-16T16:43:52.665Z,15.31
2022-11-16T16:46:21.627Z,14.84
2022-11-16T16:48:49.546Z,15.37
2022-11-16T16:51:17.421Z,15.99
2022-11-16T16:53:45.288Z,15.14
2022-11-16T16:56:17.208Z,15.72
2022-11-16T16:58:45.160Z,16.19
2022-11-16T17:01:13.309Z,14.08
2022-11-16T17:03:41.351Z,13.90
2022-11-16T17:06:09.270Z,13.85
2022-11-16T17:08:37.787Z,11.79
2022-11-16T17:11:05.745Z,12.58
2022-11-16T17:13:34.001Z,12.60
2022-11-16T17:16:05.594Z,13.02
2022-11-16T17:18:33.467Z,12.85
2022-11-16T17:21:09.466Z,12.32
2022-11-16T17:23:37.798Z,12.07
2022-11-16T17:26:07.577Z,11.18
2022-11-16T17:28:35.667Z,11.36
2022-11-16T17:31:09.283Z,11.92
2022-11-16T17:33:39.215Z,11.64
2022-11-16T17:36:08.941Z,10.80
2022-11-16T17:38:37.881Z,11.02
2022-11-16T17:41:15.229Z,10.41
2022-11-16T17:43:44.751Z,12.23
2022-11-16T17:46:17.653Z,11.91
2022-11-16T17:48:47.245Z,11.12
2022-11-16T17:51:20.367Z,11.98
2022-11-16T17:53:51.550Z,12.10
2022-11-16T17:56:23.225Z,12.23
2022-11-16T17:58:52.592Z,12.13
2022-11-16T18:01:24.606Z,12.27
2022-11-16T18:04:01.162Z,11.35
2022-11-16T18:06:29.692Z,11.11
2022-11-16T18:08:57.597Z,10.65
2022-11-16T18:11:28.434Z,10.29
2022-11-16T18:14:01.540Z,10.60
2022-11-16T18:16:32.539Z,10.89
2022-11-16T18:19:03.538Z,10.92
2022-11-16T18:21:33.705Z,10.43
2022-11-16T18:24:02.955Z,9.28
2022-11-16T18:26:30.819Z,8.39
2022-11-16T18:28:58.804Z,8.23
2022-11-16T18:31:26.978Z,8.51
2022-11-16T18:33:55.103Z,9.00
2022-11-16T18:36:23.028Z,9.39
2022-11-16T18:38:51.090Z,10.17
2022-11-16T18:41:25.260Z,12.11
2022-11-16T18:44:01.422Z,14.08
2022-11-16T18:46:31.592Z,14.50
2022-11-16T18:49:00.006Z,16.06
2022-11-16T18:51:29.240Z,15.41
2022-11-16T18:53:57.182Z,15.57
2022-11-16T18:56:25.511Z,14.66
2022-11-16T18:58:53.761Z,11.39
2022-11-16T19:01:25.011Z,12.64
2022-11-16T19:03:55.108Z,12.85
2022-11-16T19:06:23.822Z,13.68
2022-11-16T19:08:59.196Z,14.85
2022-11-16T19:11:28.750Z,13.36
2022-11-16T19:14:00.801Z,14.04
2022-11-16T19:16:28.815Z,14.16
2022-11-16T19:18:56.974Z,13.18
2022-11-16T19:21:25.359Z,12.20
2022-11-16T19:23:55.576Z,13.84
2022-11-16T19:26:25.988Z,14.29
2022-11-16T19:28:54.606Z,12.93
2022-11-16T19:31:23.555Z,13.06
2022-11-16T19:33:56.729Z,11.50
2022-11-16T19:36:26.269Z,12.35
2022-11-16T19:38:54.299Z,11.35
2022-11-16T19:41:22.898Z,11.12
2022-11-16T19:43:53.705Z,9.86
2022-11-16T19:46:21.694Z,10.28
2022-11-16T19:48:50.478Z,9.04
2022-11-16T19:51:24.192Z,9.03
2022-11-16T19:53:52.598Z,7.86
2022-11-16T19:56:22.532Z,7.54
2022-11-16T19:58:51.168Z,7.40
2022-11-16T20:01:21.765Z,6.83
2022-11-16T20:03:50.079Z,7.24
2022-11-16T20:06:23.608Z,6.53
2022-11-16T20:08:54.170Z,6.91
2022-11-16T20:11:27.502Z,7.17
2022-11-16T20:13:57.537Z,7.08
2022-11-16T20:16:31.696Z,6.94
2022-11-16T20:19:04.786Z,7.02
2022-11-16T20:21:40.982Z,7.69
2022-11-16T20:24:15.253Z,7.89
2022-11-16T20:26:45.913Z,8.77
2022-11-16T20:29:15.605Z,8.96
2022-11-16T20:31:45.468Z,8.48
2022-11-16T20:34:15.898Z,8.46
2022-11-16T20:36:46.526Z,9.30
2022-11-16T20:39:19.466Z,8.19
2022-11-16T20:41:48.165Z,8.11
2022-11-16T20:44:22.474Z,8.33
2022-11-16T20:46:52.633Z,8.65
2022-11-16T20:49:21.112Z,9.81
2022-11-16T20:51:50.358Z,9.73
2022-11-16T20:54:18.699Z,10.46
2022-11-16T20:56:48.255Z,9.01
2022-11-16T20:59:16.386Z,9.41
2022-11-16T21:01:47.807Z,9.00
2022-11-16T21:04:16.089Z,7.94
2022-11-16T21:06:43.975Z,8.22
2022-11-16T21:09:12.811Z,8.21
2022-11-16T21:11:59.246Z,9.00
2022-11-16T21:14:27.124Z,9.07
2022-11-16T21:16:55.020Z,9.43
2022-11-16T21:19:22.861Z,9.24
2022-11-16T21:21:50.750Z,8.55
2022-11-16T21:24:18.659Z,8.38
2022-11-16T21:26:46.740Z,8.13
2022-11-16T21:29:14.637Z,8.39
2022-11-16T21:31:42.516Z,8.49
2022-11-16T21:34:10.385Z,8.70
2022-11-16T21:36:38.531Z,11.46
2022-11-16T21:39:06.447Z,14.23
2022-11-16T21:41:34.737Z,13.53
2022-11-16T21:44:02.644Z,11.21
2022-11-16T21:46:30.554Z,10.77
2022-11-16T21:48:58.406Z,9.47
2022-11-16T21:51:27.164Z,9.38
2022-11-16T21:53:55.553Z,9.96
2022-11-16T21:56:25.784Z,9.89
2022-11-16T21:58:54.555Z,9.86
2022-11-16T22:01:24.058Z,10.17
2022-11-16T22:04:10.313Z,9.94
2022-11-16T22:06:56.890Z,9.67
2022-11-16T22:09:24.977Z,10.36
2022-11-16T22:11:52.841Z,9.69
2022-11-16T22:14:20.704Z,10.42
2022-11-16T22:16:48.664Z,10.85
2022-11-16T22:19:16.546Z,10.11
2022-11-16T22:21:45.440Z,10.55
2022-11-16T22:24:13.310Z,10.14
2022-11-16T22:26:41.511Z,9.56
2022-11-16T22:29:09.469Z,9.82
2022-11-16T22:31:37.502Z,10.20
2022-11-16T22:34:05.370Z,9.57
2022-11-16T22:36:33.288Z,9.80
2022-11-16T22:39:02.096Z,9.43
2022-11-16T22:41:30.126Z,10.09
2022-11-16T22:43:58.062Z,9.76
2022-11-16T22:46:25.997Z,9.56
2022-11-16T22:48:54.031Z,9.70
2022-11-16T22:51:27.275Z,10.77
2022-11-16T22:54:03.491Z,9.76
2022-11-16T22:56:33.006Z,9.84
2022-11-16T22:59:02.471Z,9.89
2022-11-16T23:01:30.379Z,9.45
2022-11-16T23:03:58.421Z,9.55
2022-11-16T23:06:26.517Z,9.22
2022-11-16T23:08:55.076Z,8.93
2022-11-16T23:11:43.438Z,8.94
2022-11-16T23:14:32.797Z,9.37
2022-11-16T23:17:01.039Z,9.12
2022-11-16T23:19:47.487Z,8.86
2022-11-16T23:22:37.029Z,8.90
2022-11-16T23:25:25.725Z,9.11
2022-11-16T23:27:59.551Z,8.99
2022-11-16T23:30:27.593Z,9.05
2022-11-16T23:32:55.581Z,8.91
2022-11-16T23:35:23.559Z,8.43
2022-11-16T23:37:56.557Z,8.73
2022-11-16T23:40:28.243Z,8.41
2022-11-16T23:43:15.592Z,8.70
2022-11-16T23:45:45.025Z,8.01
2022-11-16T23:48:15.328Z,7.79
2022-11-16T23:50:45.391Z,8.17
2022-11-16T23:53:14.105Z,8.09
2022-11-16T23:55:42.067Z,7.71
2022-11-16T23:58:13.667Z,7.84
